createdAt,value
2022-11-21T00:00:59.172Z,7.40
2022-11-21T00:06:04.881Z,7.30
2022-11-21T00:11:09.962Z,7.30
2022-11-21T00:16:16.151Z,7.40
2022-11-21T00:21:21.585Z,7.30
2022-11-21T00:26:26.649Z,7.40
2022-11-21T00:31:30.261Z,7.30
2022-11-21T00:36:33.882Z,7.40
2022-11-21T00:41:38.885Z,7.40
2022-11-21T00:46:42.522Z,7.30
2022-11-21T00:51:46.159Z,7.30
2022-11-21T00:56:51.296Z,7.20
2022-11-21T01:01:55.023Z,7.20
2022-11-21T01:06:58.730Z,7.20
2022-11-21T01:12:03.858Z,7.20
2022-11-21T01:17:07.487Z,7.20
2022-11-21T01:22:11.100Z,7.20
2022-11-21T01:27:16.124Z,7.20
2022-11-21T01:32:20.012Z,7.10
2022-11-21T01:37:23.752Z,7.10
2022-11-21T01:42:28.947Z,7.10
2022-11-21T01:47:32.642Z,7.00
2022-11-21T01:52:36.313Z,7.00
2022-11-21T01:57:44.974Z,7.00
2022-11-21T02:02:55.704Z,7.00
2022-11-21T02:08:04.945Z,7.00
2022-11-21T02:13:09.967Z,7.00
2022-11-21T02:18:13.616Z,6.90
2022-11-21T02:23:27.653Z,6.90
2022-11-21T02:28:33.022Z,6.90
2022-11-21T02:33:36.647Z,6.90
2022-11-21T02:38:40.428Z,6.80
2022-11-21T02:43:50.163Z,6.90
2022-11-21T02:48:54.220Z,6.90
2022-11-21T02:53:57.856Z,6.90
2022-11-21T02:59:03.055Z,6.90
2022-11-21T03:04:06.692Z,6.90
2022-11-21T03:09:10.328Z,6.90
2022-11-21T03:14:15.361Z,6.80
2022-11-21T03:19:19.112Z,6.80
2022-11-21T03:24:22.745Z,6.80
2022-11-21T03:29:27.822Z,6.80
2022-11-21T03:34:31.463Z,6.80
2022-11-21T03:39:35.165Z,6.80
2022-11-21T03:44:40.185Z,6.80
2022-11-21T03:49:43.835Z,6.80
2022-11-21T03:54:47.445Z,6.80
2022-11-21T03:59:52.524Z,6.80
2022-11-21T04:04:56.095Z,6.80
2022-11-21T04:09:59.722Z,6.80
2022-11-21T04:15:09.248Z,6.80
2022-11-21T04:20:17.068Z,6.80
2022-11-21T04:25:20.804Z,6.90
2022-11-21T04:30:25.971Z,6.90
2022-11-21T04:35:29.629Z,6.90
2022-11-21T04:40:33.354Z,6.90
2022-11-21T04:45:38.329Z,6.90
2022-11-21T04:50:41.957Z,6.80
2022-11-21T04:55:45.585Z,6.90
2022-11-21T05:00:50.703Z,6.90
2022-11-21T05:05:54.424Z,6.90
2022-11-21T05:11:15.522Z,6.90
2022-11-21T05:16:20.540Z,6.90
2022-11-21T05:21:24.207Z,6.90
2022-11-21T05:26:27.913Z,6.90
2022-11-21T05:31:32.988Z,6.90
2022-11-21T05:36:36.643Z,6.90
2022-11-21T05:41:40.307Z,6.90
2022-11-21T05:46:46.435Z,6.90
2022-11-21T05:51:50.337Z,6.90
2022-11-21T05:56:53.943Z,6.90
2022-11-21T06:02:18.786Z,6.90
2022-11-21T06:07:22.540Z,6.90
2022-11-21T06:12:26.271Z,6.90
2022-11-21T06:17:31.299Z,6.90
2022-11-21T06:22:34.986Z,6.90
2022-11-21T06:27:38.632Z,6.90
2022-11-21T06:32:43.791Z,6.90
2022-11-21T06:37:52.214Z,6.90
2022-11-21T06:42:58.085Z,6.90
2022-11-21T06:48:04.598Z,6.80
2022-11-21T06:53:08.314Z,6.90
2022-11-21T06:58:12.043Z,6.90
2022-11-21T07:03:17.182Z,6.90
2022-11-21T07:08:20.842Z,6.80
2022-11-21T07:13:24.819Z,6.90
2022-11-21T07:18:29.860Z,6.80
2022-11-21T07:23:34.323Z,6.80
2022-11-21T07:28:38.059Z,6.80
2022-11-21T07:33:44.342Z,6.80
2022-11-21T07:38:48.350Z,6.80
2022-11-21T07:43:52.163Z,6.80
2022-11-21T07:49:01.959Z,6.80
2022-11-21T07:54:07.655Z,6.80
2022-11-21T07:59:11.595Z,6.80
2022-11-21T08:04:16.669Z,6.80
2022-11-21T08:09:20.594Z,6.70
2022-11-21T08:14:24.474Z,6.70
2022-11-21T08:19:29.919Z,6.80
2022-11-21T08:24:33.876Z,6.70
2022-11-21T08:29:37.828Z,6.80
2022-11-21T08:34:43.066Z,6.70
2022-11-21T08:39:46.768Z,6.70
2022-11-21T08:44:50.718Z,6.80
2022-11-21T08:49:55.824Z,6.80
2022-11-21T08:54:59.509Z,6.80
2022-11-21T09:00:03.300Z,6.70
2022-11-21T09:05:09.334Z,6.80
2022-11-21T09:10:13.016Z,6.80
2022-11-21T09:15:34.054Z,6.80
2022-11-21T09:20:43.180Z,6.90
2022-11-21T09:25:47.131Z,6.90
2022-11-21T09:30:50.815Z,6.90
2022-11-21T09:35:55.870Z,7.00
2022-11-21T09:41:33.443Z,7.00
2022-11-21T09:46:44.822Z,7.10
2022-11-21T09:51:50.673Z,7.20
2022-11-21T09:56:55.865Z,7.50
2022-11-21T10:01:59.547Z,7.50
2022-11-21T10:07:08.023Z,7.50
2022-11-21T10:12:40.145Z,7.70
2022-11-21T10:17:55.444Z,7.70
2022-11-21T10:23:19.482Z,7.70
2022-11-21T10:28:29.352Z,7.80
2022-11-21T10:33:36.426Z,7.90
2022-11-21T10:38:42.172Z,7.90
2022-11-21T10:44:08.819Z,7.90
2022-11-21T10:49:15.474Z,8.00
2022-11-21T10:54:36.561Z,8.00
2022-11-21T10:59:40.395Z,8.10
2022-11-21T11:04:50.864Z,8.10
2022-11-21T11:10:17.020Z,8.10
2022-11-21T11:15:23.752Z,8.20
2022-11-21T11:20:34.175Z,8.20
2022-11-21T11:25:39.183Z,8.20
2022-11-21T11:30:44.127Z,8.20
2022-11-21T11:35:47.878Z,8.20
2022-11-21T11:40:53.982Z,8.20
2022-11-21T11:46:31.789Z,8.20
2022-11-21T11:51:41.200Z,8.30
2022-11-21T11:56:47.798Z,8.30
2022-11-21T12:01:56.890Z,8.30
2022-11-21T12:12:39.080Z,8.50
2022-11-21T12:17:49.407Z,8.50
2022-11-21T12:22:55.137Z,8.50
2022-11-21T12:28:00.247Z,8.50
2022-11-21T12:33:09.156Z,8.60
2022-11-21T12:38:30.908Z,8.60
2022-11-21T12:43:43.792Z,8.60
2022-11-21T12:49:22.155Z,8.60
2022-11-21T12:55:02.293Z,8.60
2022-11-21T13:00:21.245Z,8.70
2022-11-21T13:05:28.579Z,8.60
2022-11-21T13:10:39.943Z,8.60
2022-11-21T13:15:56.387Z,8.60
2022-11-21T13:21:00.102Z,8.60
2022-11-21T13:26:03.751Z,8.60
2022-11-21T13:31:31.069Z,8.60
2022-11-21T13:36:44.093Z,8.60
2022-11-21T13:42:20.465Z,8.60
2022-11-21T13:47:56.452Z,8.60
2022-11-21T13:53:11.643Z,8.60
2022-11-21T13:58:28.121Z,8.60
2022-11-21T14:03:56.127Z,8.50
2022-11-21T14:09:21.029Z,8.50
2022-11-21T14:14:33.549Z,8.50
2022-11-21T14:19:37.491Z,8.50
2022-11-21T14:24:43.136Z,8.50
2022-11-21T14:29:47.060Z,8.50
2022-11-21T14:34:50.793Z,8.50
2022-11-21T14:39:57.794Z,8.40
2022-11-21T14:45:08.599Z,8.40
2022-11-21T14:50:27.031Z,8.40
2022-11-21T14:55:33.981Z,8.40
2022-11-21T15:00:59.172Z,8.40
2022-11-21T15:06:05.692Z,8.40
2022-11-21T15:11:11.357Z,8.40
2022-11-21T15:16:15.545Z,8.40
2022-11-21T15:21:19.372Z,8.40
2022-11-21T15:26:35.614Z,8.40
2022-11-21T15:31:39.359Z,8.30
2022-11-21T15:36:43.180Z,8.30
2022-11-21T15:41:48.222Z,8.30
2022-11-21T15:46:54.733Z,8.30
2022-11-21T15:57:12.899Z,8.30
2022-11-21T15:57:23.509Z,8.30
2022-11-21T16:02:27.227Z,8.30
2022-11-21T16:07:30.892Z,8.30
2022-11-21T16:12:35.922Z,8.30
2022-11-21T16:17:40.568Z,8.30
2022-11-21T16:22:47.736Z,8.30
2022-11-21T16:27:53.234Z,8.30
2022-11-21T16:32:57.144Z,8.30
2022-11-21T16:38:00.746Z,8.30
2022-11-21T16:43:11.679Z,8.30
2022-11-21T16:48:15.380Z,8.30
2022-11-21T16:53:19.056Z,8.30
2022-11-21T16:58:24.164Z,8.30
2022-11-21T17:03:27.878Z,8.30
2022-11-21T17:08:31.603Z,8.30
2022-11-21T17:13:36.727Z,8.30
2022-11-21T17:18:40.679Z,8.30
2022-11-21T17:23:45.911Z,8.30
2022-11-21T17:28:56.801Z,8.30
2022-11-21T17:34:02.127Z,8.30
2022-11-21T17:39:05.993Z,8.30
2022-11-21T17:44:14.567Z,8.30
2022-11-21T17:49:18.272Z,8.30
2022-11-21T17:54:21.983Z,8.30
2022-11-21T17:59:28.446Z,8.30
2022-11-21T18:04:34.401Z,8.30
2022-11-21T18:09:38.070Z,8.30
2022-11-21T18:14:43.353Z,8.30
2022-11-21T18:19:47.006Z,8.30
2022-11-21T18:24:50.721Z,8.30
2022-11-21T18:29:55.810Z,8.30
2022-11-21T18:34:59.564Z,8.30
2022-11-21T18:40:03.295Z,8.20
2022-11-21T18:45:09.666Z,8.20
2022-11-21T18:50:13.376Z,8.20
2022-11-21T18:55:17.112Z,8.20
2022-11-21T19:00:22.631Z,8.10
2022-11-21T19:05:26.346Z,8.10
2022-11-21T19:10:43.074Z,8.10
2022-11-21T19:15:48.807Z,8.00
2022-11-21T19:20:53.091Z,8.00
2022-11-21T19:26:01.642Z,8.00
2022-11-21T19:31:08.785Z,8.00
2022-11-21T19:36:15.078Z,8.00
2022-11-21T19:41:20.847Z,8.00
2022-11-21T19:46:27.697Z,8.00
2022-11-21T19:51:33.747Z,7.90
2022-11-21T19:56:40.653Z,7.90
2022-11-21T20:01:51.036Z,7.90
2022-11-21T20:06:57.485Z,7.90
2022-11-21T20:12:01.698Z,7.90
2022-11-21T20:17:06.732Z,7.90
2022-11-21T20:22:10.435Z,7.90
2022-11-21T20:27:14.155Z,7.90
2022-11-21T20:32:19.258Z,7.80
2022-11-21T20:37:22.984Z,7.80
2022-11-21T20:42:26.783Z,7.80
2022-11-21T20:47:31.848Z,7.90
2022-11-21T20:58:01.719Z,7.90
2022-11-21T21:03:07.107Z,7.80
2022-11-21T21:08:10.771Z,7.80
2022-11-21T21:13:14.422Z,7.80
2022-11-21T21:18:19.530Z,7.90
2022-11-21T21:23:23.206Z,7.80
2022-11-21T21:28:26.944Z,7.90
2022-11-21T21:33:32.554Z,7.90
2022-11-21T21:38:37.381Z,7.80
2022-11-21T21:43:41.689Z,7.90
2022-11-21T21:48:47.362Z,7.90
2022-11-21T21:53:52.284Z,7.80
2022-11-21T21:58:57.329Z,7.80
2022-11-21T22:04:04.692Z,7.80
2022-11-21T22:09:08.615Z,7.90
2022-11-21T22:14:14.315Z,7.90
2022-11-21T22:19:23.482Z,7.90
2022-11-21T22:24:27.735Z,7.80
2022-11-21T22:29:31.714Z,7.80
2022-11-21T22:34:36.777Z,7.90
2022-11-21T22:39:40.783Z,7.90
2022-11-21T22:44:44.508Z,7.90
2022-11-21T22:49:49.549Z,7.90
2022-11-21T22:54:53.304Z,8.00
2022-11-21T22:59:57.190Z,7.90
2022-11-21T23:05:02.404Z,8.00
2022-11-21T23:10:08.019Z,8.00
2022-11-21T23:15:12.017Z,8.00
2022-11-21T23:20:17.896Z,8.00
2022-11-21T23:25:21.618Z,8.00
2022-11-21T23:30:25.262Z,8.10
2022-11-21T23:35:30.490Z,8.00
2022-11-21T23:40:34.192Z,8.10
2022-11-21T23:45:37.956Z,8.10
2022-11-21T23:50:43.119Z,8.10
2022-11-21T23:55:46.995Z,8.10
